sensor_id;sensor_type;location;lat;lon;timestamp;temperature;humidity
24162;DHT22;12318;51.262;7.066;2022-10-04T00:09:21;10.60;99.90
24162;DHT22;12318;51.262;7.066;2022-10-04T00:11:51;10.60;99.90
24162;DHT22;12318;51.262;7.066;2022-10-04T00:14:18;10.60;99.90
24162;DHT22;12318;51.262;7.066;2022-10-04T00:23:23;10.50;99.90
24162;DHT22;12318;51.262;7.066;2022-10-04T00:34:49;10.50;99.90
24162;DHT22;12318;51.262;7.066;2022-10-04T00:37:18;10.50;99.90
24162;DHT22;12318;51.262;7.066;2022-10-04T00:42:43;10.60;99.90
24162;DHT22;12318;51.262;7.066;2022-10-04T00:45:15;10.70;99.90
24162;DHT22;12318;51.262;7.066;2022-10-04T00:50:49;10.50;99.90
24162;DHT22;12318;51.262;7.066;2022-10-04T00:53:40;10.60;99.90
24162;DHT22;12318;51.262;7.066;2022-10-04T01:05:20;10.50;99.90
24162;DHT22;12318;51.262;7.066;2022-10-04T01:08:10;10.40;99.90
24162;DHT22;12318;51.262;7.066;2022-10-04T01:10:44;10.40;99.90
24162;DHT22;12318;51.262;7.066;2022-10-04T01:15:52;10.40;99.90
24162;DHT22;12318;51.262;7.066;2022-10-04T01:20:51;10.40;99.90
24162;DHT22;12318;51.262;7.066;2022-10-04T01:26:04;10.40;99.90
24162;DHT22;12318;51.262;7.066;2022-10-04T01:28:30;10.30;99.90
24162;DHT22;12318;51.262;7.066;2022-10-04T01:30:56;10.20;99.90
24162;DHT22;12318;51.262;7.066;2022-10-04T01:33:22;10.20;99.90
24162;DHT22;12318;51.262;7.066;2022-10-04T01:35:49;10.20;99.90
24162;DHT22;12318;51.262;7.066;2022-10-04T01:38:18;10.20;99.90
24162;DHT22;12318;51.262;7.066;2022-10-04T01:40:45;10.20;99.90
24162;DHT22;12318;51.262;7.066;2022-10-04T01:43:13;10.20;99.90
24162;DHT22;12318;51.262;7.066;2022-10-04T01:45:45;10.20;99.90
24162;DHT22;12318;51.262;7.066;2022-10-04T01:48:14;10.20;99.90
24162;DHT22;12318;51.262;7.066;2022-10-04T01:50:42;10.10;99.90
24162;DHT22;12318;51.262;7.066;2022-10-04T01:55:38;10.10;99.90
24162;DHT22;12318;51.262;7.066;2022-10-04T01:58:08;10.00;99.90
24162;DHT22;12318;51.262;7.066;2022-10-04T02:00:36;10.00;99.90
24162;DHT22;12318;51.262;7.066;2022-10-04T02:03:03;10.00;99.90
24162;DHT22;12318;51.262;7.066;2022-10-04T02:05:37;10.00;99.90
24162;DHT22;12318;51.262;7.066;2022-10-04T02:08:05;10.10;99.90
24162;DHT22;12318;51.262;7.066;2022-10-04T02:10:31;10.10;99.90
24162;DHT22;12318;51.262;7.066;2022-10-04T02:12:58;10.10;99.90
24162;DHT22;12318;51.262;7.066;2022-10-04T02:15:24;10.10;99.90
24162;DHT22;12318;51.262;7.066;2022-10-04T02:17:51;10.10;99.90
24162;DHT22;12318;51.262;7.066;2022-10-04T02:20:18;10.10;99.90
24162;DHT22;12318;51.262;7.066;2022-10-04T02:22:45;10.00;99.90
24162;DHT22;12318;51.262;7.066;2022-10-04T02:25:13;10.00;99.90
24162;DHT22;12318;51.262;7.066;2022-10-04T02:27:39;10.00;99.90
24162;DHT22;12318;51.262;7.066;2022-10-04T02:30:09;10.10;99.90
24162;DHT22;12318;51.262;7.066;2022-10-04T02:32:36;10.10;99.90
24162;DHT22;12318;51.262;7.066;2022-10-04T02:35:21;10.10;99.90
24162;DHT22;12318;51.262;7.066;2022-10-04T02:37:48;10.00;99.90
24162;DHT22;12318;51.262;7.066;2022-10-04T02:40:16;10.00;99.90
24162;DHT22;12318;51.262;7.066;2022-10-04T02:42:46;10.00;99.90
24162;DHT22;12318;51.262;7.066;2022-10-04T02:47:59;9.90;99.90
24162;DHT22;12318;51.262;7.066;2022-10-04T02:50:29;9.90;99.90
24162;DHT22;12318;51.262;7.066;2022-10-04T02:52:59;9.90;99.90
24162;DHT22;12318;51.262;7.066;2022-10-04T02:55:28;9.80;99.90
24162;DHT22;12318;51.262;7.066;2022-10-04T02:57:54;9.90;99.90
24162;DHT22;12318;51.262;7.066;2022-10-04T03:00:22;9.80;99.90
24162;DHT22;12318;51.262;7.066;2022-10-04T03:05:32;9.90;99.90
24162;DHT22;12318;51.262;7.066;2022-10-04T03:07:58;9.90;99.90
24162;DHT22;12318;51.262;7.066;2022-10-04T03:10:24;9.90;99.90
24162;DHT22;12318;51.262;7.066;2022-10-04T03:12:50;9.90;99.90
24162;DHT22;12318;51.262;7.066;2022-10-04T03:15:16;9.90;99.90
24162;DHT22;12318;51.262;7.066;2022-10-04T03:17:42;9.90;99.90
24162;DHT22;12318;51.262;7.066;2022-10-04T03:20:09;9.90;99.90
24162;DHT22;12318;51.262;7.066;2022-10-04T03:22:39;9.80;99.90
24162;DHT22;12318;51.262;7.066;2022-10-04T03:25:05;9.80;99.90
24162;DHT22;12318;51.262;7.066;2022-10-04T03:27:34;9.80;99.90
24162;DHT22;12318;51.262;7.066;2022-10-04T03:30:00;9.80;99.90
24162;DHT22;12318;51.262;7.066;2022-10-04T03:32:26;9.80;99.90
24162;DHT22;12318;51.262;7.066;2022-10-04T03:34:58;9.80;99.90
24162;DHT22;12318;51.262;7.066;2022-10-04T03:37:25;9.70;99.90
24162;DHT22;12318;51.262;7.066;2022-10-04T03:39:52;9.70;99.90
24162;DHT22;12318;51.262;7.066;2022-10-04T03:42:19;9.80;99.90
24162;DHT22;12318;51.262;7.066;2022-10-04T03:44:46;9.80;99.90
24162;DHT22;12318;51.262;7.066;2022-10-04T03:47:13;9.80;99.90
24162;DHT22;12318;51.262;7.066;2022-10-04T03:49:46;9.80;99.90
24162;DHT22;12318;51.262;7.066;2022-10-04T03:52:27;9.90;99.90
24162;DHT22;12318;51.262;7.066;2022-10-04T03:54:56;9.90;99.90
24162;DHT22;12318;51.262;7.066;2022-10-04T03:57:24;9.90;99.90
24162;DHT22;12318;51.262;7.066;2022-10-04T03:59:50;9.90;99.90
24162;DHT22;12318;51.262;7.066;2022-10-04T04:04:51;9.90;99.90
24162;DHT22;12318;51.262;7.066;2022-10-04T04:09:47;9.90;99.90
24162;DHT22;12318;51.262;7.066;2022-10-04T04:12:26;9.90;99.90
24162;DHT22;12318;51.262;7.066;2022-10-04T04:14:58;9.90;99.90
24162;DHT22;12318;51.262;7.066;2022-10-04T04:19:58;9.90;99.90
24162;DHT22;12318;51.262;7.066;2022-10-04T04:22:28;9.80;99.90
24162;DHT22;12318;51.262;7.066;2022-10-04T04:25:00;9.80;99.90
24162;DHT22;12318;51.262;7.066;2022-10-04T04:27:35;9.80;99.90
24162;DHT22;12318;51.262;7.066;2022-10-04T04:30:07;9.80;99.90
24162;DHT22;12318;51.262;7.066;2022-10-04T04:35:24;9.80;99.90
24162;DHT22;12318;51.262;7.066;2022-10-04T04:40:30;9.80;99.90
24162;DHT22;12318;51.262;7.066;2022-10-04T04:42:59;9.70;99.90
24162;DHT22;12318;51.262;7.066;2022-10-04T04:45:31;9.70;99.90
24162;DHT22;12318;51.262;7.066;2022-10-04T04:48:00;9.60;99.90
24162;DHT22;12318;51.262;7.066;2022-10-04T04:50:31;9.60;99.90
24162;DHT22;12318;51.262;7.066;2022-10-04T04:53:08;9.60;99.90
24162;DHT22;12318;51.262;7.066;2022-10-04T04:55:40;9.50;99.90
24162;DHT22;12318;51.262;7.066;2022-10-04T04:58:29;9.60;99.90
24162;DHT22;12318;51.262;7.066;2022-10-04T05:01:05;9.50;99.90
24162;DHT22;12318;51.262;7.066;2022-10-04T05:03:37;9.40;99.90
24162;DHT22;12318;51.262;7.066;2022-10-04T05:06:17;9.40;99.90
24162;DHT22;12318;51.262;7.066;2022-10-04T05:08:47;9.40;99.90
24162;DHT22;12318;51.262;7.066;2022-10-04T05:11:16;9.50;99.90
24162;DHT22;12318;51.262;7.066;2022-10-04T05:14:28;9.50;99.90
24162;DHT22;12318;51.262;7.066;2022-10-04T05:19:46;9.50;99.90
24162;DHT22;12318;51.262;7.066;2022-10-04T05:22:19;9.50;99.90
24162;DHT22;12318;51.262;7.066;2022-10-04T05:24:47;9.50;99.90
24162;DHT22;12318;51.262;7.066;2022-10-04T05:27:29;9.50;99.90
24162;DHT22;12318;51.262;7.066;2022-10-04T05:34:47;9.40;99.90
24162;DHT22;12318;51.262;7.066;2022-10-04T05:46:15;9.30;99.90
24162;DHT22;12318;51.262;7.066;2022-10-04T05:48:44;9.40;99.90
24162;DHT22;12318;51.262;7.066;2022-10-04T05:51:17;9.40;99.90
24162;DHT22;12318;51.262;7.066;2022-10-04T05:53:46;9.40;99.90
24162;DHT22;12318;51.262;7.066;2022-10-04T06:22:43;9.50;99.90
24162;DHT22;12318;51.262;7.066;2022-10-04T06:28:00;9.60;99.90
24162;DHT22;12318;51.262;7.066;2022-10-04T06:33:26;9.70;99.90
24162;DHT22;12318;51.262;7.066;2022-10-04T06:36:03;9.80;99.90
24162;DHT22;12318;51.262;7.066;2022-10-04T06:41:29;9.80;99.90
24162;DHT22;12318;51.262;7.066;2022-10-04T07:04:43;10.20;99.90
24162;DHT22;12318;51.262;7.066;2022-10-04T07:06:46;10.20;99.90
24162;DHT22;12318;51.262;7.066;2022-10-04T07:09:15;10.30;99.90
24162;DHT22;12318;51.262;7.066;2022-10-04T07:11:45;10.30;99.90
24162;DHT22;12318;51.262;7.066;2022-10-04T07:14:14;10.40;99.90
24162;DHT22;12318;51.262;7.066;2022-10-04T07:16:56;10.50;99.90
24162;DHT22;12318;51.262;7.066;2022-10-04T07:30:37;11.10;99.90
24162;DHT22;12318;51.262;7.066;2022-10-04T07:33:14;11.10;99.90
24162;DHT22;12318;51.262;7.066;2022-10-04T07:36:09;11.00;99.90
24162;DHT22;12318;51.262;7.066;2022-10-04T07:38:34;11.20;99.90
24162;DHT22;12318;51.262;7.066;2022-10-04T07:43:58;11.40;99.90
24162;DHT22;12318;51.262;7.066;2022-10-04T07:49:43;11.40;99.90
24162;DHT22;12318;51.262;7.066;2022-10-04T07:52:30;11.50;99.90
24162;DHT22;12318;51.262;7.066;2022-10-04T08:06:32;12.00;99.90
24162;DHT22;12318;51.262;7.066;2022-10-04T08:23:23;12.10;99.90
24162;DHT22;12318;51.262;7.066;2022-10-04T09:08:20;13.00;99.90
24162;DHT22;12318;51.262;7.066;2022-10-04T10:04:38;14.50;99.90
24162;DHT22;12318;51.262;7.066;2022-10-04T10:09:56;14.60;99.90
24162;DHT22;12318;51.262;7.066;2022-10-04T10:21:17;15.40;99.90
24162;DHT22;12318;51.262;7.066;2022-10-04T10:23:50;15.20;99.90
24162;DHT22;12318;51.262;7.066;2022-10-04T10:26:26;15.10;99.90
24162;DHT22;12318;51.262;7.066;2022-10-04T10:42:38;15.30;99.90
24162;DHT22;12318;51.262;7.066;2022-10-04T10:45:46;15.40;99.90
24162;DHT22;12318;51.262;7.066;2022-10-04T11:08:07;15.90;99.90
24162;DHT22;12318;51.262;7.066;2022-10-04T11:14:00;16.00;99.90
24162;DHT22;12318;51.262;7.066;2022-10-04T11:16:53;16.10;99.90
24162;DHT22;12318;51.262;7.066;2022-10-04T11:39:21;16.30;99.90
24162;DHT22;12318;51.262;7.066;2022-10-04T11:53:14;16.80;99.90
24162;DHT22;12318;51.262;7.066;2022-10-04T12:02:44;17.00;99.90
24162;DHT22;12318;51.262;7.066;2022-10-04T12:14:02;17.10;99.90
24162;DHT22;12318;51.262;7.066;2022-10-04T12:21:14;17.20;99.90
24162;DHT22;12318;51.262;7.066;2022-10-04T12:26:27;17.30;99.90
24162;DHT22;12318;51.262;7.066;2022-10-04T12:31:36;17.40;99.90
24162;DHT22;12318;51.262;7.066;2022-10-04T12:45:20;16.90;99.90
24162;DHT22;12318;51.262;7.066;2022-10-04T12:53:37;17.20;99.90
24162;DHT22;12318;51.262;7.066;2022-10-04T12:58:44;17.60;99.90
24162;DHT22;12318;51.262;7.066;2022-10-04T13:04:28;17.60;99.90
24162;DHT22;12318;51.262;7.066;2022-10-04T13:44:52;17.70;99.90
24162;DHT22;12318;51.262;7.066;2022-10-04T14:00:46;17.30;99.90
24162;DHT22;12318;51.262;7.066;2022-10-04T14:03:22;17.30;99.90
24162;DHT22;12318;51.262;7.066;2022-10-04T14:06:04;17.50;99.90
24162;DHT22;12318;51.262;7.066;2022-10-04T14:32:05;17.60;99.90
24162;DHT22;12318;51.262;7.066;2022-10-04T14:45:25;17.60;99.90
24162;DHT22;12318;51.262;7.066;2022-10-04T14:53:19;17.50;99.90
24162;DHT22;12318;51.262;7.066;2022-10-04T14:58:19;17.40;99.90
24162;DHT22;12318;51.262;7.066;2022-10-04T15:00:54;17.50;99.90
24162;DHT22;12318;51.262;7.066;2022-10-04T15:13:50;17.40;99.90
24162;DHT22;12318;51.262;7.066;2022-10-04T15:19:00;17.40;99.90
24162;DHT22;12318;51.262;7.066;2022-10-04T15:21:31;17.50;99.90
24162;DHT22;12318;51.262;7.066;2022-10-04T15:32:35;17.60;99.90
24162;DHT22;12318;51.262;7.066;2022-10-04T15:35:24;17.50;99.90
24162;DHT22;12318;51.262;7.066;2022-10-04T15:40:24;17.40;99.90
24162;DHT22;12318;51.262;7.066;2022-10-04T16:29:52;17.10;99.90
24162;DHT22;12318;51.262;7.066;2022-10-04T16:32:22;17.10;99.90
24162;DHT22;12318;51.262;7.066;2022-10-04T16:34:55;17.00;99.90
24162;DHT22;12318;51.262;7.066;2022-10-04T16:37:27;17.00;99.90
24162;DHT22;12318;51.262;7.066;2022-10-04T16:39:59;16.90;99.90
24162;DHT22;12318;51.262;7.066;2022-10-04T16:50:55;16.30;99.90
24162;DHT22;12318;51.262;7.066;2022-10-04T16:59:03;15.30;99.90
24162;DHT22;12318;51.262;7.066;2022-10-04T17:01:32;15.40;99.90
24162;DHT22;12318;51.262;7.066;2022-10-04T17:12:06;15.00;99.90
24162;DHT22;12318;51.262;7.066;2022-10-04T17:17:00;14.70;99.90
24162;DHT22;12318;51.262;7.066;2022-10-04T17:22:04;15.00;99.90
24162;DHT22;12318;51.262;7.066;2022-10-04T17:27:16;15.10;99.90
24162;DHT22;12318;51.262;7.066;2022-10-04T17:29:59;15.20;99.90
24162;DHT22;12318;51.262;7.066;2022-10-04T17:48:09;14.90;99.90
24162;DHT22;12318;51.262;7.066;2022-10-04T17:51:01;14.90;99.90
24162;DHT22;12318;51.262;7.066;2022-10-04T17:53:47;15.00;99.90
24162;DHT22;12318;51.262;7.066;2022-10-04T17:56:41;15.00;99.90
24162;DHT22;12318;51.262;7.066;2022-10-04T17:59:12;15.00;99.90
24162;DHT22;12318;51.262;7.066;2022-10-04T18:01:44;14.90;99.90
24162;DHT22;12318;51.262;7.066;2022-10-04T18:04:21;14.80;99.90
24162;DHT22;12318;51.262;7.066;2022-10-04T18:11:58;14.80;99.90
24162;DHT22;12318;51.262;7.066;2022-10-04T18:17:03;14.90;99.90
24162;DHT22;12318;51.262;7.066;2022-10-04T18:21:55;14.70;99.90
24162;DHT22;12318;51.262;7.066;2022-10-04T18:24:27;14.70;99.90
24162;DHT22;12318;51.262;7.066;2022-10-04T18:26:53;14.70;99.90
24162;DHT22;12318;51.262;7.066;2022-10-04T18:29:38;14.70;99.90
24162;DHT22;12318;51.262;7.066;2022-10-04T18:34:56;14.70;99.90
24162;DHT22;12318;51.262;7.066;2022-10-04T18:37:37;14.70;99.90
24162;DHT22;12318;51.262;7.066;2022-10-04T18:40:13;14.60;99.90
24162;DHT22;12318;51.262;7.066;2022-10-04T18:42:41;14.40;99.90
24162;DHT22;12318;51.262;7.066;2022-10-04T18:45:20;14.00;99.90
24162;DHT22;12318;51.262;7.066;2022-10-04T18:47:46;13.70;99.90
24162;DHT22;12318;51.262;7.066;2022-10-04T18:50:16;13.50;99.90
24162;DHT22;12318;51.262;7.066;2022-10-04T18:52:50;13.50;99.90
24162;DHT22;12318;51.262;7.066;2022-10-04T18:57:55;13.70;99.90
24162;DHT22;12318;51.262;7.066;2022-10-04T19:00:47;13.70;99.90
24162;DHT22;12318;51.262;7.066;2022-10-04T19:03:37;13.70;99.90
24162;DHT22;12318;51.262;7.066;2022-10-04T19:11:18;12.90;99.90
24162;DHT22;12318;51.262;7.066;2022-10-04T19:13:47;12.70;99.90
24162;DHT22;12318;51.262;7.066;2022-10-04T19:19:07;12.80;99.90
24162;DHT22;12318;51.262;7.066;2022-10-04T19:26:34;13.30;99.90
24162;DHT22;12318;51.262;7.066;2022-10-04T19:31:49;13.60;99.90
24162;DHT22;12318;51.262;7.066;2022-10-04T19:34:17;13.60;99.90
24162;DHT22;12318;51.262;7.066;2022-10-04T19:42:01;13.80;99.90
24162;DHT22;12318;51.262;7.066;2022-10-04T19:44:34;13.80;99.90
24162;DHT22;12318;51.262;7.066;2022-10-04T19:47:08;13.80;99.90
24162;DHT22;12318;51.262;7.066;2022-10-04T19:52:40;13.50;99.90
24162;DHT22;12318;51.262;7.066;2022-10-04T19:57:52;13.30;99.90
24162;DHT22;12318;51.262;7.066;2022-10-04T20:00:20;13.30;99.90
24162;DHT22;12318;51.262;7.066;2022-10-04T20:02:46;13.40;99.90
24162;DHT22;12318;51.262;7.066;2022-10-04T20:05:12;13.30;99.90
24162;DHT22;12318;51.262;7.066;2022-10-04T20:07:38;13.40;99.90
24162;DHT22;12318;51.262;7.066;2022-10-04T20:13:33;13.40;99.90
24162;DHT22;12318;51.262;7.066;2022-10-04T20:15:55;13.20;99.90
24162;DHT22;12318;51.262;7.066;2022-10-04T20:26:06;13.20;99.90
24162;DHT22;12318;51.262;7.066;2022-10-04T20:31:00;13.00;99.90
24162;DHT22;12318;51.262;7.066;2022-10-04T20:36:07;12.90;99.90
24162;DHT22;12318;51.262;7.066;2022-10-04T20:38:47;12.90;99.90
24162;DHT22;12318;51.262;7.066;2022-10-04T20:44:12;12.80;99.90
24162;DHT22;12318;51.262;7.066;2022-10-04T20:46:58;12.80;99.90
24162;DHT22;12318;51.262;7.066;2022-10-04T20:49:24;12.80;99.90
24162;DHT22;12318;51.262;7.066;2022-10-04T20:51:51;12.80;99.90
24162;DHT22;12318;51.262;7.066;2022-10-04T20:54:17;12.80;99.90
24162;DHT22;12318;51.262;7.066;2022-10-04T20:56:47;12.80;99.90
24162;DHT22;12318;51.262;7.066;2022-10-04T20:59:14;12.80;99.90
24162;DHT22;12318;51.262;7.066;2022-10-04T21:01:40;12.70;99.90
24162;DHT22;12318;51.262;7.066;2022-10-04T21:04:13;12.60;99.90
24162;DHT22;12318;51.262;7.066;2022-10-04T21:06:49;12.60;99.90
24162;DHT22;12318;51.262;7.066;2022-10-04T21:09:15;12.60;99.90
24162;DHT22;12318;51.262;7.066;2022-10-04T21:11:44;12.60;99.90
24162;DHT22;12318;51.262;7.066;2022-10-04T21:14:52;12.50;99.90
24162;DHT22;12318;51.262;7.066;2022-10-04T21:16:59;12.50;99.90
24162;DHT22;12318;51.262;7.066;2022-10-04T21:19:39;12.50;99.90
24162;DHT22;12318;51.262;7.066;2022-10-04T21:22:13;12.60;99.90
24162;DHT22;12318;51.262;7.066;2022-10-04T21:25:02;12.60;99.90
24162;DHT22;12318;51.262;7.066;2022-10-04T21:29:58;12.60;99.90
24162;DHT22;12318;51.262;7.066;2022-10-04T21:32:24;12.50;99.90
24162;DHT22;12318;51.262;7.066;2022-10-04T21:34:50;12.50;99.90
24162;DHT22;12318;51.262;7.066;2022-10-04T21:37:16;12.50;99.90
24162;DHT22;12318;51.262;7.066;2022-10-04T21:39:42;12.50;99.90
24162;DHT22;12318;51.262;7.066;2022-10-04T21:42:08;12.50;99.90
24162;DHT22;12318;51.262;7.066;2022-10-04T21:44:33;12.60;99.90
24162;DHT22;12318;51.262;7.066;2022-10-04T21:46:59;12.50;99.90
24162;DHT22;12318;51.262;7.066;2022-10-04T21:49:28;12.40;99.90
24162;DHT22;12318;51.262;7.066;2022-10-04T21:51:56;12.40;99.90
24162;DHT22;12318;51.262;7.066;2022-10-04T21:54:22;12.40;99.90
24162;DHT22;12318;51.262;7.066;2022-10-04T21:56:47;12.50;99.90
24162;DHT22;12318;51.262;7.066;2022-10-04T21:59:13;12.50;99.90
24162;DHT22;12318;51.262;7.066;2022-10-04T22:01:39;12.50;99.90
24162;DHT22;12318;51.262;7.066;2022-10-04T22:04:04;12.50;99.90
24162;DHT22;12318;51.262;7.066;2022-10-04T22:06:30;12.50;99.90
24162;DHT22;12318;51.262;7.066;2022-10-04T22:08:56;12.60;99.90
24162;DHT22;12318;51.262;7.066;2022-10-04T22:11:21;12.60;99.90
24162;DHT22;12318;51.262;7.066;2022-10-04T22:13:47;12.50;99.90
24162;DHT22;12318;51.262;7.066;2022-10-04T22:16:13;12.50;99.90
24162;DHT22;12318;51.262;7.066;2022-10-04T22:18:39;12.50;99.90
24162;DHT22;12318;51.262;7.066;2022-10-04T22:21:05;12.50;99.90
24162;DHT22;12318;51.262;7.066;2022-10-04T22:23:32;12.50;99.90
24162;DHT22;12318;51.262;7.066;2022-10-04T22:26:04;12.50;99.90
24162;DHT22;12318;51.262;7.066;2022-10-04T22:28:31;12.50;99.90
24162;DHT22;12318;51.262;7.066;2022-10-04T22:30:57;12.50;99.90
24162;DHT22;12318;51.262;7.066;2022-10-04T22:35:55;12.50;99.90
24162;DHT22;12318;51.262;7.066;2022-10-04T22:38:22;12.50;99.90
24162;DHT22;12318;51.262;7.066;2022-10-04T22:40:48;12.50;99.90
24162;DHT22;12318;51.262;7.066;2022-10-04T22:43:13;12.60;99.90
24162;DHT22;12318;51.262;7.066;2022-10-04T22:45:39;12.60;99.90
24162;DHT22;12318;51.262;7.066;2022-10-04T22:48:10;12.50;99.90
24162;DHT22;12318;51.262;7.066;2022-10-04T22:50:38;12.50;99.90
24162;DHT22;12318;51.262;7.066;2022-10-04T22:53:06;12.60;99.90
24162;DHT22;12318;51.262;7.066;2022-10-04T22:55:35;12.50;99.90
24162;DHT22;12318;51.262;7.066;2022-10-04T22:58:01;12.50;99.90
24162;DHT22;12318;51.262;7.066;2022-10-04T23:00:27;12.50;99.90
24162;DHT22;12318;51.262;7.066;2022-10-04T23:02:53;12.50;99.90
24162;DHT22;12318;51.262;7.066;2022-10-04T23:05:19;12.50;99.90
24162;DHT22;12318;51.262;7.066;2022-10-04T23:07:45;12.40;99.90
24162;DHT22;12318;51.262;7.066;2022-10-04T23:10:12;12.50;99.90
24162;DHT22;12318;51.262;7.066;2022-10-04T23:12:38;12.50;99.90
24162;DHT22;12318;51.262;7.066;2022-10-04T23:15:06;12.50;99.90
24162;DHT22;12318;51.262;7.066;2022-10-04T23:17:33;12.60;99.90
24162;DHT22;12318;51.262;7.066;2022-10-04T23:20:05;12.60;99.90
24162;DHT22;12318;51.262;7.066;2022-10-04T23:22:34;12.50;99.90
24162;DHT22;12318;51.262;7.066;2022-10-04T23:25:00;12.50;99.90
24162;DHT22;12318;51.262;7.066;2022-10-04T23:27:25;12.50;99.90
24162;DHT22;12318;51.262;7.066;2022-10-04T23:29:57;12.60;99.90
24162;DHT22;12318;51.262;7.066;2022-10-04T23:32:25;12.50;99.90
24162;DHT22;12318;51.262;7.066;2022-10-04T23:34:51;12.60;99.90
24162;DHT22;12318;51.262;7.066;2022-10-04T23:37:20;12.60;99.90
24162;DHT22;12318;51.262;7.066;2022-10-04T23:39:47;12.50;99.90
24162;DHT22;12318;51.262;7.066;2022-10-04T23:42:27;12.50;99.90
24162;DHT22;12318;51.262;7.066;2022-10-04T23:44:57;12.50;99.90
24162;DHT22;12318;51.262;7.066;2022-10-04T23:47:24;12.50;99.90
24162;DHT22;12318;51.262;7.066;2022-10-04T23:49:52;12.50;99.90
24162;DHT22;12318;51.262;7.066;2022-10-04T23:52:24;12.50;99.90
24162;DHT22;12318;51.262;7.066;2022-10-04T23:54:51;12.50;99.90
24162;DHT22;12318;51.262;7.066;2022-10-04T23:57:27;12.50;99.90
24162;DHT22;12318;51.262;7.066;2022-10-04T23:59:52;12.40;99.90
